This is the latest recevied weather packets stored in our database for station/object IZ6EGX-13. If no packets are shown the sender has not sent any weather packets the latest 10 day(s).
| Time | Temp. | Humidity | Pressure | Rain* | Wind** | Luminosity | Snow |
|---|---|---|---|---|---|---|---|
| 1777373179 | 21.67° C | 50% | 1015.4 hPa | 0 mm | - | - | - |
| 1777372579 | 21.67° C | 54% | 1015.5 hPa | 0 mm | - | - | - |
| 1777371979 | 21.67° C | 53% | 1015.5 hPa | 0 mm | - | - | - |
| 1777371379 | 21.67° C | 52% | 1015.5 hPa | 0 mm | - | - | - |
| 1777370779 | 21.67° C | 53% | 1015.5 hPa | 0 mm | - | - | - |
| 1777370179 | 21.11° C | 55% | 1015.5 hPa | 0 mm | - | - | - |
| 1777369579 | 21.11° C | 60% | 1015.6 hPa | 0 mm | - | - | - |
| 1777368979 | 21.11° C | 62% | 1015.7 hPa | 0 mm | - | - | - |
| 1777368379 | 21.11° C | 61% | 1015.7 hPa | 0 mm | - | - | - |
| 1777367779 | 21.11° C | 61% | 1015.8 hPa | 0 mm | - | - | - |
| 1777367179 | 20.56° C | 63% | 1015.9 hPa | 0 mm | - | - | - |
| 1777366579 | 20.56° C | 66% | 1016 hPa | 0 mm | - | - | - |
| 1777365979 | 20.56° C | 66% | 1016 hPa | 0 mm | - | - | - |
| 1777365379 | 20.56° C | 65% | 1016 hPa | 0 mm | - | - | - |
| 1777364779 | 21.67° C | 58% | 1015.8 hPa | 0 mm | - | - | - |
| 1777364179 | 21.67° C | 54% | 1015.7 hPa | 0 mm | - | - | - |
| 1777363579 | 20.56° C | 59% | 1015.8 hPa | 0 mm | - | - | - |
| 1777362979 | 20° C | 63% | 1015.7 hPa | 0 mm | - | - | - |
| 1777362379 | 20° C | 62% | 1015.7 hPa | 0 mm | - | - | - |
| 1777361779 | 20° C | 62% | 1015.8 hPa | 0 mm | - | - | - |
| 1777361179 | 19.44° C | 62% | 1015.9 hPa | 0 mm | - | - | - |
| 1777360579 | 19.44° C | 63% | 1015.9 hPa | 0 mm | - | - | - |
| 1777359979 | 18.89° C | 63% | 1015.9 hPa | 0 mm | - | - | - |
| 1777359379 | 19.44° C | 62% | 1015.9 hPa | 0 mm | - | - | - |
| 1777358779 | 19.44° C | 56% | 1015.8 hPa | 0 mm | - | - | - |
* Rain latest hour (hover to see other rain measurements)
** Current wind speed in m/s (hover to see current wind gust speed)